createdAt,value
2023-03-10T00:00:12.558Z,8.93
2023-03-10T00:01:12.565Z,8.93
2023-03-10T00:02:12.539Z,8.93
2023-03-10T00:03:12.531Z,8.94
2023-03-10T00:04:12.575Z,8.93
2023-03-10T00:05:12.473Z,8.94
2023-03-10T00:06:12.469Z,8.96
2023-03-10T00:07:12.457Z,8.94
2023-03-10T00:08:12.448Z,8.97
2023-03-10T00:09:12.422Z,8.97
2023-03-10T00:10:12.425Z,8.98
2023-03-10T00:11:12.397Z,8.98
2023-03-10T00:12:12.426Z,9.00
2023-03-10T00:13:12.409Z,9.01
2023-03-10T00:14:12.368Z,9.01
2023-03-10T00:15:12.348Z,9.00
2023-03-10T00:16:12.353Z,9.01
2023-03-10T00:17:12.343Z,9.03
2023-03-10T00:18:12.318Z,9.00
2023-03-10T00:19:12.316Z,9.03
2023-03-10T00:20:12.285Z,9.01
2023-03-10T00:21:12.268Z,9.01
2023-03-10T00:22:12.288Z,9.00
2023-03-10T00:23:12.247Z,9.01
2023-03-10T00:24:12.233Z,9.03
2023-03-10T00:25:12.232Z,9.04
2023-03-10T00:26:12.213Z,9.04
2023-03-10T00:27:12.226Z,9.06
2023-03-10T00:28:12.218Z,9.06
2023-03-10T00:29:12.204Z,9.04
2023-03-10T00:30:12.176Z,9.03
2023-03-10T00:31:12.251Z,9.03
2023-03-10T00:32:12.180Z,9.06
2023-03-10T00:33:12.170Z,9.08
2023-03-10T00:34:12.119Z,9.08
2023-03-10T00:35:12.088Z,9.06
2023-03-10T00:36:12.159Z,9.06
2023-03-10T00:37:12.105Z,9.06
2023-03-10T00:38:12.079Z,9.12
2023-03-10T00:39:12.067Z,9.13
2023-03-10T00:40:12.085Z,9.15
2023-03-10T00:41:12.019Z,9.17
2023-03-10T00:42:12.020Z,9.17
2023-03-10T00:43:12.006Z,9.19
2023-03-10T00:44:11.989Z,9.19
2023-03-10T00:45:11.970Z,9.23
2023-03-10T00:46:12.005Z,9.24
2023-03-10T00:47:11.929Z,9.26
2023-03-10T00:48:11.979Z,9.26
2023-03-10T00:49:11.917Z,9.26
2023-03-10T00:50:11.909Z,9.23
2023-03-10T00:51:11.874Z,9.23
2023-03-10T00:52:11.876Z,9.23
2023-03-10T00:53:11.880Z,9.24
2023-03-10T00:54:11.869Z,9.23
2023-03-10T00:55:11.852Z,9.22
2023-03-10T00:56:11.825Z,9.22
2023-03-10T00:57:11.803Z,9.22
2023-03-10T00:58:11.858Z,9.22
2023-03-10T00:59:11.772Z,9.24
2023-03-10T01:00:11.797Z,9.24
2023-03-10T01:01:11.825Z,9.27
2023-03-10T01:02:11.773Z,9.26
2023-03-10T01:03:11.767Z,9.24
2023-03-10T01:04:11.832Z,9.24
2023-03-10T01:05:11.729Z,9.26
2023-03-10T01:06:11.693Z,9.26
2023-03-10T01:07:11.690Z,9.30
2023-03-10T01:08:11.703Z,9.34
2023-03-10T01:09:11.634Z,9.35
2023-03-10T01:10:11.674Z,9.37
2023-03-10T01:11:11.645Z,9.38
2023-03-10T01:12:11.638Z,9.38
2023-03-10T01:13:11.630Z,9.41
2023-03-10T01:14:11.607Z,9.38
2023-03-10T01:15:11.582Z,9.38
2023-03-10T01:16:11.581Z,9.38
2023-03-10T01:17:11.554Z,9.38
2023-03-10T01:18:11.629Z,9.40
2023-03-10T01:19:11.538Z,9.42
2023-03-10T01:20:11.536Z,9.44
2023-03-10T01:21:11.499Z,9.42
2023-03-10T01:22:11.469Z,9.41
2023-03-10T01:23:11.527Z,9.40
2023-03-10T01:24:11.502Z,9.40
2023-03-10T01:25:11.455Z,9.38
2023-03-10T01:26:11.444Z,9.38
2023-03-10T01:27:11.443Z,9.38
2023-03-10T01:28:11.417Z,9.37
2023-03-10T01:29:11.423Z,9.38
2023-03-10T01:30:11.378Z,9.40
2023-03-10T01:31:11.419Z,9.40
2023-03-10T01:32:11.410Z,9.42
2023-03-10T01:33:11.357Z,9.45
2023-03-10T01:34:11.337Z,9.44
2023-03-10T01:35:11.307Z,9.44
2023-03-10T01:36:11.385Z,9.42
2023-03-10T01:37:11.292Z,9.44
2023-03-10T01:38:11.307Z,9.44
2023-03-10T01:39:11.275Z,9.42
2023-03-10T01:40:11.262Z,9.41
2023-03-10T01:41:11.265Z,9.41
2023-03-10T01:42:11.220Z,9.40
2023-03-10T01:43:11.225Z,9.40
2023-03-10T01:44:11.188Z,9.40
2023-03-10T01:45:11.182Z,9.40
2023-03-10T01:46:11.213Z,9.38
2023-03-10T01:47:11.198Z,9.38
2023-03-10T01:48:11.237Z,9.38
2023-03-10T01:49:11.169Z,9.37
2023-03-10T01:50:11.120Z,9.34
2023-03-10T01:51:11.128Z,9.35
2023-03-10T01:52:11.096Z,9.35
2023-03-10T01:53:11.102Z,9.34
2023-03-10T01:54:11.056Z,9.34
2023-03-10T01:55:11.052Z,9.32
2023-03-10T01:56:11.027Z,9.34
2023-03-10T01:57:11.026Z,9.35
2023-03-10T01:58:11.037Z,9.34
2023-03-10T01:59:11.004Z,9.32
2023-03-10T02:00:10.998Z,9.34
2023-03-10T02:01:11.032Z,9.34
2023-03-10T02:02:11.007Z,9.35
2023-03-10T02:03:10.982Z,9.37
2023-03-10T02:04:10.958Z,9.38
2023-03-10T02:05:10.934Z,9.42
2023-03-10T02:06:10.909Z,9.41
2023-03-10T02:07:10.903Z,9.41
2023-03-10T02:08:10.914Z,9.42
2023-03-10T02:09:10.971Z,9.41
2023-03-10T02:10:10.875Z,9.40
2023-03-10T02:11:10.872Z,9.38
2023-03-10T02:12:10.839Z,9.37
2023-03-10T02:13:10.856Z,9.34
2023-03-10T02:14:10.807Z,9.32
2023-03-10T02:15:10.831Z,9.34
2023-03-10T02:16:10.845Z,9.32
2023-03-10T02:17:10.765Z,9.30
2023-03-10T02:18:10.778Z,9.31
2023-03-10T02:19:10.775Z,9.31
2023-03-10T02:20:10.776Z,9.30
2023-03-10T02:21:10.762Z,9.31
2023-03-10T02:22:10.692Z,9.32
2023-03-10T02:23:10.727Z,9.30
2023-03-10T02:24:10.697Z,9.30
2023-03-10T02:25:10.686Z,9.30
2023-03-10T02:26:10.689Z,9.32
2023-03-10T02:27:10.660Z,9.34
2023-03-10T02:28:10.608Z,9.35
2023-03-10T02:29:10.685Z,9.35
2023-03-10T02:30:10.595Z,9.38
2023-03-10T02:31:10.674Z,9.45
2023-03-10T02:32:10.653Z,9.45
2023-03-10T02:33:10.613Z,9.48
2023-03-10T02:34:10.565Z,9.48
2023-03-10T02:35:10.561Z,9.45
2023-03-10T02:36:10.575Z,9.42
2023-03-10T02:37:10.533Z,9.35
2023-03-10T02:38:10.500Z,9.34
2023-03-10T02:39:10.478Z,9.30
2023-03-10T02:40:10.465Z,9.27
2023-03-10T02:41:10.488Z,9.23
2023-03-10T02:42:10.425Z,9.22
2023-03-10T02:43:10.485Z,9.22
2023-03-10T02:44:10.405Z,9.20
2023-03-10T02:45:10.420Z,9.20
2023-03-10T02:46:10.572Z,9.19
2023-03-10T02:47:10.393Z,9.17
2023-03-10T02:48:10.378Z,9.16
2023-03-10T02:49:10.388Z,9.15
2023-03-10T02:50:10.356Z,9.13
2023-03-10T02:51:10.320Z,9.12
2023-03-10T02:52:10.352Z,9.13
2023-03-10T02:53:10.319Z,9.13
2023-03-10T02:54:10.343Z,9.12
2023-03-10T02:55:10.299Z,9.12
2023-03-10T02:56:10.265Z,9.08
2023-03-10T02:57:10.264Z,9.08
2023-03-10T02:58:10.263Z,9.04
2023-03-10T02:59:10.319Z,9.06
2023-03-10T03:00:10.187Z,9.03
2023-03-10T03:01:10.265Z,9.03
2023-03-10T03:02:10.185Z,9.03
2023-03-10T03:03:10.169Z,9.03
2023-03-10T03:04:10.249Z,9.03
2023-03-10T03:05:10.164Z,9.04
2023-03-10T03:06:10.161Z,9.06
2023-03-10T03:07:10.137Z,9.10
2023-03-10T03:08:10.114Z,9.13
2023-03-10T03:09:10.124Z,9.16
2023-03-10T03:10:10.091Z,9.17
2023-03-10T03:11:10.049Z,9.17
2023-03-10T03:12:10.048Z,9.20
2023-03-10T03:13:10.055Z,9.24
2023-03-10T03:14:10.056Z,9.24
2023-03-10T03:15:09.997Z,9.27
2023-03-10T03:16:10.076Z,9.26
2023-03-10T03:17:09.995Z,9.27
2023-03-10T03:18:09.984Z,9.26
2023-03-10T03:19:10.062Z,9.26
2023-03-10T03:20:09.948Z,9.27
2023-03-10T03:21:09.954Z,9.27
2023-03-10T03:22:09.907Z,9.27
2023-03-10T03:23:09.898Z,9.26
2023-03-10T03:24:09.934Z,9.27
2023-03-10T03:25:09.867Z,9.26
2023-03-10T03:26:09.872Z,9.24
2023-03-10T03:27:09.857Z,9.27
2023-03-10T03:28:09.840Z,9.26
2023-03-10T03:29:09.851Z,9.26
2023-03-10T03:30:09.818Z,9.27
2023-03-10T03:31:09.839Z,9.26
2023-03-10T03:32:09.954Z,9.27
2023-03-10T03:33:09.788Z,9.26
2023-03-10T03:34:09.789Z,9.27
2023-03-10T03:35:09.780Z,9.30
2023-03-10T03:36:09.743Z,9.30
2023-03-10T03:37:09.753Z,9.30
2023-03-10T03:38:09.682Z,9.27
2023-03-10T03:39:09.857Z,9.27
2023-03-10T03:40:09.685Z,9.27
2023-03-10T03:41:09.655Z,9.27
2023-03-10T03:42:09.660Z,9.26
2023-03-10T03:43:09.668Z,9.23
2023-03-10T03:44:09.647Z,9.24
2023-03-10T03:45:09.636Z,9.23
2023-03-10T03:46:09.629Z,9.24
2023-03-10T03:47:09.611Z,9.24
2023-03-10T03:48:09.560Z,9.23
2023-03-10T03:49:09.666Z,9.22
2023-03-10T03:50:09.559Z,9.20
2023-03-10T03:51:09.533Z,9.22
2023-03-10T03:52:09.500Z,9.22
2023-03-10T03:53:09.501Z,9.22
2023-03-10T03:54:09.498Z,9.22
2023-03-10T03:55:09.505Z,9.22
2023-03-10T03:56:09.459Z,9.23
2023-03-10T03:57:09.471Z,9.20
2023-03-10T03:58:09.478Z,9.22
2023-03-10T03:59:09.489Z,9.24
2023-03-10T04:00:09.418Z,9.23
2023-03-10T04:01:09.410Z,9.22
2023-03-10T04:02:09.427Z,9.20
2023-03-10T04:03:09.432Z,9.20
2023-03-10T04:04:09.385Z,9.20
2023-03-10T04:05:09.397Z,9.20
2023-03-10T04:06:09.366Z,9.22
2023-03-10T04:07:09.345Z,9.20
2023-03-10T04:08:09.287Z,9.19
2023-03-10T04:09:09.319Z,9.17
2023-03-10T04:10:09.280Z,9.16
2023-03-10T04:11:09.301Z,9.16
2023-03-10T04:12:09.276Z,9.15
2023-03-10T04:13:09.265Z,9.13
2023-03-10T04:14:09.262Z,9.16
2023-03-10T04:15:09.244Z,9.13
2023-03-10T04:16:09.264Z,9.12
2023-03-10T04:17:11.828Z,9.15
2023-03-10T04:18:09.194Z,9.13
2023-03-10T04:19:09.185Z,9.13
2023-03-10T04:20:09.165Z,9.13
2023-03-10T04:21:09.201Z,9.12
2023-03-10T04:22:09.132Z,9.12
2023-03-10T04:23:09.136Z,9.13
2023-03-10T04:24:09.100Z,9.13
2023-03-10T04:25:09.114Z,9.12
2023-03-10T04:26:09.083Z,9.10
2023-03-10T04:27:09.091Z,9.12
2023-03-10T04:28:09.065Z,9.12
2023-03-10T04:29:09.111Z,9.08
2023-03-10T04:30:09.032Z,9.10
2023-03-10T04:31:09.071Z,9.10
2023-03-10T04:32:09.135Z,9.08
2023-03-10T04:33:09.004Z,9.08
2023-03-10T04:34:09.026Z,9.08
2023-03-10T04:35:08.956Z,9.04
2023-03-10T04:36:09.131Z,9.04
2023-03-10T04:37:08.926Z,9.06
2023-03-10T04:38:08.905Z,9.06
2023-03-10T04:39:08.905Z,9.03
2023-03-10T04:40:08.907Z,9.04
2023-03-10T04:41:08.894Z,9.01
2023-03-10T04:42:08.896Z,9.01
2023-03-10T04:43:08.881Z,9.00
2023-03-10T04:44:17.683Z,8.98
2023-03-10T04:45:09.838Z,8.98
2023-03-10T04:46:08.847Z,8.98
2023-03-10T04:47:08.815Z,8.97
2023-03-10T04:48:08.806Z,8.96
2023-03-10T04:49:08.765Z,8.96
2023-03-10T04:50:08.801Z,8.94
2023-03-10T04:51:08.778Z,8.93
2023-03-10T04:52:08.755Z,8.91
2023-03-10T04:53:08.730Z,8.93
2023-03-10T04:54:08.696Z,8.91
2023-03-10T04:55:08.726Z,8.89
2023-03-10T04:56:08.663Z,8.89
2023-03-10T04:57:08.712Z,8.89
2023-03-10T04:58:08.670Z,8.88
2023-03-10T04:59:08.637Z,8.88
2023-03-10T05:00:08.725Z,8.88
2023-03-10T05:01:08.631Z,8.86
2023-03-10T05:02:08.699Z,8.85
2023-03-10T05:03:08.616Z,8.86
2023-03-10T05:04:08.608Z,8.85
2023-03-10T05:05:08.609Z,8.85
2023-03-10T05:06:08.549Z,8.83
2023-03-10T05:07:08.566Z,8.83
2023-03-10T05:08:08.537Z,8.83
2023-03-10T05:09:08.536Z,8.83
2023-03-10T05:10:08.490Z,8.82
2023-03-10T05:11:08.546Z,8.82
2023-03-10T05:12:08.456Z,8.82
2023-03-10T05:13:08.458Z,8.80
2023-03-10T05:14:08.445Z,8.82
2023-03-10T05:15:08.453Z,8.80
2023-03-10T05:16:08.481Z,8.80
2023-03-10T05:17:08.429Z,8.80
2023-03-10T05:18:08.414Z,8.80
2023-03-10T05:19:08.376Z,8.80
2023-03-10T05:20:08.377Z,8.79
2023-03-10T05:21:08.383Z,8.80
2023-03-10T05:22:08.332Z,8.78
2023-03-10T05:23:08.343Z,8.79
2023-03-10T05:24:08.317Z,8.80
2023-03-10T05:25:08.331Z,8.80
2023-03-10T05:26:08.302Z,8.79
2023-03-10T05:27:08.272Z,8.78
2023-03-10T05:28:08.271Z,8.78
2023-03-10T05:29:08.244Z,8.78
2023-03-10T05:30:08.231Z,8.76
2023-03-10T05:31:08.282Z,8.76
2023-03-10T05:32:08.204Z,8.75
2023-03-10T05:33:08.193Z,8.73
2023-03-10T05:34:08.208Z,8.75
2023-03-10T05:35:08.168Z,8.75
2023-03-10T05:36:08.273Z,8.73
2023-03-10T05:37:08.151Z,8.71
2023-03-10T05:38:08.121Z,8.71
2023-03-10T05:39:08.103Z,8.70
2023-03-10T05:40:08.110Z,8.70
2023-03-10T05:41:08.168Z,8.70
2023-03-10T05:42:08.099Z,8.68
2023-03-10T05:43:08.111Z,8.68
2023-03-10T05:44:08.058Z,8.68
2023-03-10T05:45:08.029Z,8.67
2023-03-10T05:46:08.065Z,8.67
2023-03-10T05:47:08.090Z,8.67
2023-03-10T05:48:07.992Z,8.68
2023-03-10T05:49:08.008Z,8.65
2023-03-10T05:50:07.980Z,8.65
2023-03-10T05:51:07.990Z,8.64
2023-03-10T05:52:08.008Z,8.65
2023-03-10T05:53:07.948Z,8.64
2023-03-10T05:54:07.979Z,8.64
2023-03-10T05:55:07.919Z,8.64
2023-03-10T05:56:07.910Z,8.64
2023-03-10T05:57:07.860Z,8.65
2023-03-10T05:58:07.891Z,8.65
2023-03-10T05:59:07.892Z,8.65
2023-03-10T06:00:07.865Z,8.65
2023-03-10T06:01:07.873Z,8.64
2023-03-10T06:02:07.819Z,8.65
2023-03-10T06:03:07.813Z,8.65
2023-03-10T06:04:07.841Z,8.65
2023-03-10T06:05:10.237Z,8.64
2023-03-10T06:06:07.804Z,8.67
2023-03-10T06:07:07.777Z,8.67
2023-03-10T06:08:07.740Z,8.65
2023-03-10T06:09:08.005Z,8.65
2023-03-10T06:10:07.744Z,8.67
2023-03-10T06:11:07.754Z,8.67
2023-03-10T06:12:07.673Z,8.67
2023-03-10T06:13:07.662Z,8.67
2023-03-10T06:14:07.695Z,8.67
2023-03-10T06:15:07.657Z,8.67
2023-03-10T06:16:07.705Z,8.67
2023-03-10T06:17:07.623Z,8.67
2023-03-10T06:18:07.643Z,8.68
2023-03-10T06:19:07.590Z,8.68
2023-03-10T06:20:07.615Z,8.68
2023-03-10T06:21:07.629Z,8.68
2023-03-10T06:22:07.558Z,8.67
2023-03-10T06:23:07.555Z,8.68
2023-03-10T06:24:07.548Z,8.68
2023-03-10T06:25:07.531Z,8.68
2023-03-10T06:26:08.536Z,8.68
2023-03-10T06:27:07.475Z,8.68
2023-03-10T06:28:09.622Z,8.70
2023-03-10T06:29:07.454Z,8.67
2023-03-10T06:30:07.479Z,8.67
2023-03-10T06:31:07.447Z,8.67
2023-03-10T06:32:07.552Z,8.67
2023-03-10T06:33:07.404Z,8.68
2023-03-10T06:34:07.398Z,8.70
2023-03-10T06:35:07.382Z,8.70
2023-03-10T06:36:07.423Z,8.70
2023-03-10T06:37:07.380Z,8.70
2023-03-10T06:38:07.374Z,8.71
2023-03-10T06:39:07.344Z,8.68
2023-03-10T06:40:07.330Z,8.70
2023-03-10T06:41:07.374Z,8.71
2023-03-10T06:42:07.289Z,8.70
2023-03-10T06:43:07.320Z,8.70
2023-03-10T06:44:07.277Z,8.71
2023-03-10T06:45:07.245Z,8.68
2023-03-10T06:46:07.437Z,8.70
2023-03-10T06:47:07.335Z,8.73
2023-03-10T06:48:07.237Z,8.71
2023-03-10T06:49:07.214Z,8.70
2023-03-10T06:50:07.224Z,8.70
2023-03-10T06:51:07.320Z,8.71
2023-03-10T06:52:07.188Z,8.73
2023-03-10T06:53:07.156Z,8.70
2023-03-10T06:54:07.140Z,8.73
2023-03-10T06:55:07.162Z,8.71
2023-03-10T06:56:07.137Z,8.71
2023-03-10T06:57:07.166Z,8.71
2023-03-10T06:58:07.099Z,8.73
2023-03-10T06:59:07.064Z,8.73
2023-03-10T07:00:07.101Z,8.73
2023-03-10T07:01:07.057Z,8.71
2023-03-10T07:02:07.070Z,8.73
2023-03-10T07:03:07.025Z,8.75
2023-03-10T07:04:07.035Z,8.75
2023-03-10T07:05:07.057Z,8.75
2023-03-10T07:06:06.982Z,8.78
2023-03-10T07:07:07.010Z,8.79
2023-03-10T07:08:06.962Z,8.80
2023-03-10T07:09:06.944Z,8.82
2023-03-10T07:10:08.300Z,8.82
2023-03-10T07:11:06.946Z,8.83
2023-03-10T07:12:06.972Z,8.85
2023-03-10T07:13:06.910Z,8.85
2023-03-10T07:14:06.908Z,8.86
2023-03-10T07:15:06.850Z,8.88
2023-03-10T07:16:06.943Z,8.89
2023-03-10T07:17:07.006Z,8.91
2023-03-10T07:18:06.992Z,8.91
2023-03-10T07:19:06.808Z,8.93
2023-03-10T07:20:06.811Z,8.96
2023-03-10T07:21:06.780Z,8.97
2023-03-10T07:22:06.793Z,8.97
2023-03-10T07:23:06.774Z,8.98
2023-03-10T07:24:06.745Z,9.01
2023-03-10T07:25:06.727Z,9.01
2023-03-10T07:26:06.737Z,9.01
2023-03-10T07:27:06.703Z,9.03
2023-03-10T07:28:06.736Z,9.03
2023-03-10T07:29:06.703Z,9.03
2023-03-10T07:30:06.710Z,9.03
2023-03-10T07:31:06.734Z,9.03
2023-03-10T07:32:06.681Z,9.03
2023-03-10T07:33:06.615Z,9.04
2023-03-10T07:34:06.626Z,9.03
2023-03-10T07:35:06.593Z,9.03
2023-03-10T07:36:06.724Z,9.00
2023-03-10T07:37:06.645Z,8.98
2023-03-10T07:38:06.578Z,8.96
2023-03-10T07:39:06.536Z,8.97
2023-03-10T07:40:06.564Z,8.94
2023-03-10T07:41:06.524Z,8.94
2023-03-10T07:42:06.556Z,8.96
2023-03-10T07:43:06.517Z,8.98
2023-03-10T07:44:06.495Z,9.00
2023-03-10T07:45:06.483Z,9.03
2023-03-10T07:46:06.577Z,9.03
2023-03-10T07:47:06.462Z,9.06
2023-03-10T07:48:06.466Z,9.08
2023-03-10T07:49:06.405Z,9.12
2023-03-10T07:50:06.486Z,9.13
2023-03-10T07:51:06.376Z,9.16
2023-03-10T07:52:06.407Z,9.19
2023-03-10T07:53:06.370Z,9.20
2023-03-10T07:54:06.376Z,9.23
2023-03-10T07:55:06.322Z,9.23
2023-03-10T07:56:06.320Z,9.24
2023-03-10T07:57:06.350Z,9.27
2023-03-10T07:58:06.318Z,9.31
2023-03-10T07:59:06.306Z,9.35
2023-03-10T08:00:06.275Z,9.40
2023-03-10T08:01:06.271Z,9.45
2023-03-10T08:02:06.301Z,9.52
2023-03-10T08:03:06.252Z,9.59
2023-03-10T08:04:06.484Z,9.59
2023-03-10T08:05:06.255Z,9.59
2023-03-10T08:06:06.218Z,9.60
2023-03-10T08:07:06.180Z,9.63
2023-03-10T08:08:06.206Z,9.65
2023-03-10T08:09:06.195Z,9.65
2023-03-10T08:10:06.233Z,9.67
2023-03-10T08:11:06.142Z,9.67
2023-03-10T08:12:06.156Z,9.67
2023-03-10T08:13:06.164Z,9.62
2023-03-10T08:14:06.164Z,9.62
2023-03-10T08:15:06.069Z,9.62
2023-03-10T08:16:06.146Z,9.62
2023-03-10T08:17:06.073Z,9.67
2023-03-10T08:18:06.039Z,9.68
2023-03-10T08:19:06.015Z,9.71
2023-03-10T08:20:06.034Z,9.73
2023-03-10T08:21:06.013Z,9.74
2023-03-10T08:22:06.062Z,9.75
2023-03-10T08:23:05.997Z,9.77
2023-03-10T08:24:05.958Z,9.78
2023-03-10T08:25:05.970Z,9.81
2023-03-10T08:26:05.959Z,9.85
2023-03-10T08:27:06.020Z,9.86
2023-03-10T08:28:05.914Z,9.88
2023-03-10T08:29:05.885Z,9.91
2023-03-10T08:30:05.885Z,9.93
2023-03-10T08:31:05.988Z,9.95
2023-03-10T08:32:05.949Z,9.98
2023-03-10T08:33:05.895Z,9.99
2023-03-10T08:34:05.859Z,9.99
2023-03-10T08:35:05.804Z,10.04
2023-03-10T08:36:05.875Z,10.07
2023-03-10T08:37:05.820Z,10.10
2023-03-10T08:38:05.804Z,10.16
2023-03-10T08:39:05.752Z,10.18
2023-03-10T08:40:05.773Z,10.25
2023-03-10T08:41:09.494Z,10.26
2023-03-10T08:42:05.766Z,10.29
2023-03-10T08:43:05.740Z,10.31
2023-03-10T08:44:05.709Z,10.35
2023-03-10T08:45:08.438Z,10.38
2023-03-10T08:46:08.326Z,10.42
2023-03-10T08:47:05.798Z,10.39
2023-03-10T08:48:05.683Z,10.38
2023-03-10T08:49:05.629Z,10.43
2023-03-10T08:50:05.642Z,10.44
2023-03-10T08:51:05.667Z,10.46
2023-03-10T08:52:05.628Z,10.47
2023-03-10T08:53:05.660Z,10.46
2023-03-10T08:54:05.563Z,10.49
2023-03-10T08:55:05.572Z,10.51
2023-03-10T08:56:05.534Z,10.54
2023-03-10T08:57:05.516Z,10.55
2023-03-10T08:58:05.552Z,10.57
2023-03-10T08:59:05.538Z,10.54
2023-03-10T09:00:05.485Z,10.55
2023-03-10T09:01:05.499Z,10.58
2023-03-10T09:02:05.650Z,10.60
2023-03-10T09:03:05.528Z,10.63
2023-03-10T09:04:05.432Z,10.63
2023-03-10T09:05:05.455Z,10.65
2023-03-10T09:06:05.419Z,10.68
2023-03-10T09:07:05.416Z,10.69
2023-03-10T09:08:05.449Z,10.70
2023-03-10T09:09:05.367Z,10.70
2023-03-10T09:10:05.375Z,10.73
2023-03-10T09:11:05.345Z,10.76
2023-03-10T09:12:05.333Z,10.80
2023-03-10T09:13:13.812Z,10.83
2023-03-10T09:14:06.345Z,10.84
2023-03-10T09:15:05.310Z,10.87
2023-03-10T09:16:05.459Z,10.87
2023-03-10T09:17:05.302Z,10.87
2023-03-10T09:18:05.262Z,10.88
2023-03-10T09:19:05.266Z,10.90
2023-03-10T09:20:05.231Z,10.91
2023-03-10T09:21:05.230Z,10.91
2023-03-10T09:22:05.288Z,10.91
2023-03-10T09:23:05.246Z,10.91
2023-03-10T09:24:05.187Z,10.93
2023-03-10T09:25:05.175Z,10.93
2023-03-10T09:26:05.181Z,10.93
2023-03-10T09:27:05.169Z,10.98
2023-03-10T09:28:05.187Z,10.99
2023-03-10T09:29:05.171Z,10.99
2023-03-10T09:30:05.151Z,11.02
2023-03-10T09:31:05.066Z,11.02
2023-03-10T09:32:07.023Z,11.06
2023-03-10T09:33:05.249Z,11.02
2023-03-10T09:34:05.040Z,11.02
2023-03-10T09:35:05.052Z,11.05
2023-03-10T09:36:06.795Z,11.06
2023-03-10T09:37:06.907Z,11.08
2023-03-10T09:38:05.019Z,11.12
2023-03-10T09:39:05.013Z,11.12
2023-03-10T09:40:06.344Z,11.16
2023-03-10T09:41:07.299Z,11.17
2023-03-10T09:42:04.994Z,11.17
2023-03-10T09:43:04.957Z,11.12
2023-03-10T09:44:04.908Z,11.09
2023-03-10T09:45:04.888Z,11.16
2023-03-10T09:46:05.034Z,11.21
2023-03-10T09:47:04.898Z,11.30
2023-03-10T09:48:05.106Z,11.33
2023-03-10T09:49:04.940Z,11.35
2023-03-10T09:50:04.820Z,11.35
2023-03-10T09:51:04.820Z,11.39
2023-03-10T09:52:12.380Z,11.38
2023-03-10T09:53:12.871Z,11.38
2023-03-10T09:54:04.778Z,11.38
2023-03-10T09:55:04.795Z,11.39
2023-03-10T09:56:04.770Z,11.41
2023-03-10T09:57:04.737Z,11.45
2023-03-10T09:58:04.740Z,11.51
2023-03-10T09:59:04.718Z,11.57
2023-03-10T10:00:04.725Z,11.63
2023-03-10T10:01:04.686Z,11.64
2023-03-10T10:02:04.736Z,11.69
2023-03-10T10:03:05.336Z,11.72
2023-03-10T10:04:04.889Z,11.74
2023-03-10T10:05:04.716Z,11.74
2023-03-10T10:06:04.639Z,11.69
2023-03-10T10:07:04.619Z,11.77
2023-03-10T10:08:04.604Z,11.77
2023-03-10T10:09:05.678Z,11.75
2023-03-10T10:10:04.587Z,11.74
2023-03-10T10:11:04.666Z,11.74
2023-03-10T10:12:04.534Z,11.69
2023-03-10T10:13:04.537Z,11.74
2023-03-10T10:14:04.523Z,11.75
2023-03-10T10:15:04.528Z,11.77
2023-03-10T10:16:21.264Z,11.70
2023-03-10T10:17:05.549Z,11.69
2023-03-10T10:18:16.189Z,11.69
2023-03-10T10:19:05.564Z,11.69
2023-03-10T10:20:04.432Z,11.67
2023-03-10T10:21:04.470Z,11.66
2023-03-10T10:22:04.570Z,11.66
2023-03-10T10:23:04.434Z,11.63
2023-03-10T10:24:04.398Z,11.64
2023-03-10T10:25:06.966Z,11.66
2023-03-10T10:26:04.367Z,11.69
2023-03-10T10:27:04.352Z,11.74
2023-03-10T10:28:04.332Z,11.82
2023-03-10T10:29:04.333Z,11.87
2023-03-10T10:30:04.316Z,11.96
2023-03-10T10:31:04.314Z,12.04
2023-03-10T10:32:04.411Z,12.16
2023-03-10T10:33:04.311Z,12.26
2023-03-10T10:34:04.274Z,12.36
2023-03-10T10:35:04.278Z,12.38
2023-03-10T10:36:04.297Z,12.44
2023-03-10T10:37:04.226Z,12.46
2023-03-10T10:38:04.224Z,12.46
2023-03-10T10:39:04.198Z,12.41
2023-03-10T10:40:04.230Z,12.38
2023-03-10T10:41:07.153Z,12.31
2023-03-10T10:42:04.164Z,12.25
2023-03-10T10:43:04.225Z,12.21
2023-03-10T10:44:04.296Z,12.15
2023-03-10T10:45:04.198Z,12.11
2023-03-10T10:46:04.164Z,12.07
2023-03-10T10:47:04.121Z,12.04
2023-03-10T10:48:04.096Z,12.01
2023-03-10T10:49:04.167Z,12.00
2023-03-10T10:50:04.065Z,11.97
2023-03-10T10:51:04.069Z,11.94
2023-03-10T10:52:04.036Z,11.93
2023-03-10T10:53:04.063Z,11.90
2023-03-10T10:54:04.052Z,11.85
2023-03-10T10:55:04.024Z,11.84
2023-03-10T10:56:03.984Z,11.81
2023-03-10T10:57:04.718Z,11.79
2023-03-10T10:58:03.965Z,11.79
2023-03-10T10:59:03.994Z,11.78
2023-03-10T11:00:03.904Z,11.74
2023-03-10T11:01:04.020Z,11.66
2023-03-10T11:02:04.148Z,11.60
2023-03-10T11:03:03.877Z,11.51
2023-03-10T11:04:03.856Z,11.38
2023-03-10T11:05:03.913Z,11.26
2023-03-10T11:06:03.854Z,11.17
2023-03-10T11:07:03.854Z,11.03
2023-03-10T11:08:03.861Z,10.95
2023-03-10T11:09:03.820Z,10.94
2023-03-10T11:10:03.820Z,10.93
2023-03-10T11:11:03.813Z,10.98
2023-03-10T11:12:03.766Z,11.01
2023-03-10T11:13:03.793Z,11.01
2023-03-10T11:14:03.753Z,11.01
2023-03-10T11:15:03.747Z,11.03
2023-03-10T11:16:03.780Z,11.02
2023-03-10T11:17:03.725Z,11.03
2023-03-10T11:18:03.721Z,11.03
2023-03-10T11:19:03.698Z,11.01
2023-03-10T11:20:03.683Z,11.01
2023-03-10T11:21:03.680Z,10.98
2023-03-10T11:22:03.686Z,10.95
2023-03-10T11:23:03.642Z,10.94
2023-03-10T11:24:03.636Z,10.94
2023-03-10T11:25:03.704Z,10.91
2023-03-10T11:26:03.593Z,10.84
2023-03-10T11:27:03.632Z,10.76
2023-03-10T11:28:03.577Z,10.72
2023-03-10T11:29:03.622Z,10.69
2023-03-10T11:30:03.544Z,10.68
2023-03-10T11:31:03.602Z,10.65
2023-03-10T11:32:03.484Z,10.60
2023-03-10T11:33:03.535Z,10.55
2023-03-10T11:34:03.492Z,10.52
2023-03-10T11:35:03.503Z,10.51
2023-03-10T11:36:03.520Z,10.49
2023-03-10T11:37:03.489Z,10.47
2023-03-10T11:38:03.420Z,10.47
2023-03-10T11:39:03.416Z,10.46
2023-03-10T11:40:03.480Z,10.43
2023-03-10T11:41:03.386Z,10.43
2023-03-10T11:42:03.404Z,10.39
2023-03-10T11:43:03.385Z,10.36
2023-03-10T11:44:03.362Z,10.36
2023-03-10T11:45:03.353Z,10.32
2023-03-10T11:46:03.422Z,10.32
2023-03-10T11:47:03.315Z,10.34
2023-03-10T11:48:03.284Z,10.31
2023-03-10T11:49:03.339Z,10.31
2023-03-10T11:50:03.288Z,10.31
2023-03-10T11:51:03.253Z,10.29
2023-03-10T11:52:03.249Z,10.28
2023-03-10T11:53:03.291Z,10.31
2023-03-10T11:54:03.201Z,10.29
2023-03-10T11:55:03.214Z,10.29
2023-03-10T11:56:03.201Z,10.29
2023-03-10T11:57:03.235Z,10.31
2023-03-10T11:58:03.169Z,10.29
2023-03-10T11:59:03.170Z,10.31
2023-03-10T12:00:03.163Z,10.31
2023-03-10T12:01:03.280Z,10.31
2023-03-10T12:02:03.116Z,10.31
2023-03-10T12:03:03.115Z,10.29
2023-03-10T12:04:03.125Z,10.32
2023-03-10T12:05:03.210Z,10.35
2023-03-10T12:06:03.102Z,10.35
2023-03-10T12:07:03.104Z,10.36
2023-03-10T12:08:03.051Z,10.36
2023-03-10T12:09:03.052Z,10.35
2023-03-10T12:10:03.056Z,10.36
2023-03-10T12:11:03.017Z,10.35
2023-03-10T12:12:02.970Z,10.34
2023-03-10T12:13:02.976Z,10.31
2023-03-10T12:14:02.939Z,10.31
2023-03-10T12:15:02.979Z,10.28
2023-03-10T12:16:03.078Z,10.25
2023-03-10T12:17:02.932Z,10.20
2023-03-10T12:18:02.914Z,10.17
2023-03-10T12:19:02.889Z,10.16
2023-03-10T12:20:02.874Z,10.14
2023-03-10T12:21:02.892Z,10.14
2023-03-10T12:22:02.871Z,10.14
2023-03-10T12:23:02.881Z,10.14
2023-03-10T12:24:02.811Z,10.17
2023-03-10T12:25:02.832Z,10.22
2023-03-10T12:26:02.834Z,10.28
2023-03-10T12:27:02.875Z,10.34
2023-03-10T12:28:02.802Z,10.42
2023-03-10T12:29:02.836Z,10.44
2023-03-10T12:30:02.763Z,10.49
2023-03-10T12:31:02.823Z,10.51
2023-03-10T12:32:02.860Z,10.51
2023-03-10T12:33:02.723Z,10.51
2023-03-10T12:34:02.715Z,10.49
2023-03-10T12:35:02.718Z,10.51
2023-03-10T12:36:02.704Z,10.46
2023-03-10T12:37:02.662Z,10.46
2023-03-10T12:38:02.644Z,10.43
2023-03-10T12:39:02.654Z,10.38
2023-03-10T12:40:02.612Z,10.35
2023-03-10T12:41:02.604Z,10.34
2023-03-10T12:42:02.626Z,10.32
2023-03-10T12:43:02.596Z,10.34
2023-03-10T12:44:02.575Z,10.34
2023-03-10T12:45:02.573Z,10.34
2023-03-10T12:46:02.518Z,10.31
2023-03-10T12:47:02.664Z,10.28
2023-03-10T12:48:02.784Z,10.26
2023-03-10T12:49:02.557Z,10.26
2023-03-10T12:50:02.517Z,10.26
2023-03-10T12:51:02.510Z,10.28
2023-03-10T12:52:02.639Z,10.29
2023-03-10T12:53:02.534Z,10.31
2023-03-10T12:54:02.428Z,10.32
2023-03-10T12:55:02.465Z,10.34
2023-03-10T12:56:02.389Z,10.32
2023-03-10T12:57:02.388Z,10.31
2023-03-10T12:58:02.405Z,10.28
2023-03-10T12:59:02.392Z,10.28
2023-03-10T13:00:02.365Z,10.28
2023-03-10T13:01:02.484Z,10.28
2023-03-10T13:02:02.335Z,10.29
2023-03-10T13:03:02.360Z,10.28
2023-03-10T13:04:02.435Z,10.28
2023-03-10T13:05:02.288Z,10.28
2023-03-10T13:06:02.306Z,10.26
2023-03-10T13:07:02.260Z,10.26
2023-03-10T13:08:02.250Z,10.26
2023-03-10T13:09:02.254Z,10.25